Wednesday, February 21, 2018, 8:08 PM EST
Back to Local

KCQX, Chatham Municipal Airport

Location: Chatham, MA, United States Lat: 41.683
Local Time: 8:08 PM EST ( 1:08 GMT) Lon: -70
Time Zone: US/Eastern Elev: 68 ft

Show me the last for .
Show Decoded

2018-02-21 19:52 METAR KCQX 220052Z AUTO 23010G16KT 1/2SM FG VV002 08/08 A3025 RMK AO2 SLP247
                 T00780078 =
2018-02-21 19:45 METAR KCQX 220045Z AUTO 23008G19KT 3/4SM BR VV002 08/08 A3025 RMK AO2 T00780078
                 =
2018-02-21 19:31 METAR KCQX 220031Z AUTO 23009G19KT 190V260 1SM BR VV002 07/07 A3024 RMK AO2
                 T00720072 =
2018-02-21 18:52 METAR KCQX 212352Z AUTO 23011G20KT 3/4SM BR VV002 07/07 A3023 RMK AO2 SLP239
                 T00720072 10083 20072 53003 =
2018-02-21 17:52 METAR KCQX 212252Z AUTO 22010G21KT 1/2SM FG VV002 08/08 A3022 RMK AO2 SLP235
                 T00780078 =
2018-02-21 17:36 METAR KCQX 212236Z AUTO 23010G19KT 1/2SM FG VV002 08/08 A3022 RMK AO2 T00780078
                 =
2018-02-21 16:52 METAR KCQX 212152Z AUTO 22009G17KT 1/4SM FG VV002 08/08 A3022 RMK AO2 SLP234
                 T00780078 =
2018-02-21 15:52 METAR KCQX 212052Z AUTO 23011G19KT 1/4SM FG VV002 08/08 A3022 RMK AO2 SLP235
                 T00830083 55008 =
2018-02-21 15:02 METAR KCQX 212002Z AUTO 23010G21KT 1/4SM FG VV002 08/08 A3022 RMK AO2 T00830083
                 =
2018-02-21 14:52 METAR KCQX 211952Z AUTO 22009G17KT 1/2SM FG VV002 08/08 A3021 RMK AO2 SLP232
                 T00830083 =
2018-02-21 14:28 METAR KCQX 211928Z AUTO 23010G18KT 1/4SM FG VV002 08/08 A3022 RMK AO2 T00780078
                 =
2018-02-21 14:16 METAR KCQX 211916Z AUTO 23008G16KT 1/2SM FG VV002 08/08 A3022 RMK AO2 T00780078
                 TSNO =
2018-02-21 14:06 METAR KCQX 211906Z AUTO 23010G17KT 1/4SM FG VV002 08/08 A3023 RMK AO2 T00780078
                 TSNO =
2018-02-21 13:52 METAR KCQX 211852Z AUTO 23009G14KT 1/2SM FG VV002 08/08 A3022 RMK AO2 SLP236
                 T00780078 TSNO =
2018-02-21 12:52 METAR KCQX 211752Z AUTO 22011G20KT 3/4SM BR VV002 08/08 A3025 RMK AO2 SLP244
                 T00780078 10083 20072 58015 TSNO =
2018-02-21 12:34 METAR KCQX 211734Z AUTO 22008G16KT 1/2SM FG VV002 08/08 A3025 RMK AO2 T00780078
                 TSNO =
2018-02-21 12:21 METAR KCQX 211721Z AUTO 22008G17KT 1/4SM FG VV002 08/08 A3026 RMK AO2 T00780078
                 TSNO =
2018-02-21 11:52 METAR KCQX 211652Z AUTO 23010G19KT 1/2SM FG VV002 08/08 A3027 RMK AO2 SLP252
                 T00780078 TSNO $ =
2018-02-21 11:21 METAR KCQX 211621Z AUTO 23009G20KT 1/2SM FG VV002 08/08 A3028 RMK AO2 T00780078
                 TSNO $ =
2018-02-21 10:52 METAR KCQX 211552Z AUTO 23010G20KT 1/4SM FG VV002 08/08 A3029 RMK AO2 SLP259
                 T00780078 TSNO $ =
2018-02-21 09:52 METAR KCQX 211452Z AUTO 23008G17KT 1/4SM FG VV002 08/08 A3029 RMK AO2 SLP259
                 T00780078 58000 TSNO =
2018-02-21 08:52 METAR KCQX 211352Z AUTO 23010G19KT 1/4SM FG VV002 08/08 A3029 RMK AO2 SLP260
                 T00830083 TSNO =
2018-02-21 07:52 METAR KCQX 211252Z AUTO 23008G16KT 200V270 1/4SM FG VV002 08/08 A3030 RMK AO2
                 SLP261 T00780078 TSNO =
2018-02-21 07:30 METAR KCQX 211230Z AUTO 23008KT 1/4SM FG VV002 08/08 A3030 RMK AO2 T00780078
                 TSNO =
2018-02-21 07:11 METAR KCQX 211211Z AUTO 24008G15KT 1/2SM FG VV002 08/08 A3029 RMK AO2 T00780078
                 TSNO =
2018-02-21 06:52 METAR KCQX 211152Z AUTO 24008KT 1/4SM FG VV002 08/08 A3029 RMK AO2 SLP259
                 T00780078 10100 20072 55007 TSNO =
2018-02-21 06:50 METAR KCQX 211150Z AUTO 24008KT 1/4SM FG VV002 08/08 A3029 RMK AO2 TSNO =
2018-02-21 05:52 METAR KCQX 211052Z AUTO 23006KT 1/2SM FG VV002 07/07 A3030 RMK AO2 SLP261
                 T00720072 TSNO =
2018-02-21 04:52 METAR KCQX 210952Z AUTO 24008KT 1/2SM FG VV002 08/08 A3031 RMK AO2 SLP267
                 T00780078 TSNO =
2018-02-21 03:52 METAR KCQX 210852Z AUTO 24010G20KT 1/2SM FG VV002 09/09 A3033 RMK AO2 SLP271
                 T00940094 56007 TSNO =
2018-02-21 02:52 METAR KCQX 210752Z AUTO 24010G20KT 1/2SM FG VV002 09/09 A3032 RMK AO2 SLP271
                 T00890089 TSNO =
2018-02-21 01:52 METAR KCQX 210652Z AUTO 23009G21KT 1/2SM FG VV002 08/08 A3033 RMK AO2 SLP273
                 T00830083 TSNO =
2018-02-21 00:52 METAR KCQX 210552Z AUTO 23008G15KT 1/2SM FG VV002 07/07 A3035 RMK AO2 SLP278
                 T00720072 10072 20067 53003 TSNO =
2018-02-20 23:52 METAR KCQX 210452Z AUTO 22008G17KT 3/4SM BR VV002 07/07 A3034 RMK AO2 SLP277
                 T00670067 400830061 TSNO =
2018-02-20 22:52 METAR KCQX 210352Z AUTO 23011G18KT 3/4SM BR VV002 07/07 A3034 RMK AO2 SLP275
                 T00720072 TSNO =
2018-02-20 21:52 METAR KCQX 210252Z AUTO 23009G19KT 200V270 3/4SM BR VV002 07/07 A3034 RMK AO2
                 SLP275 T00720072 52007 TSNO =
2018-02-20 21:45 METAR KCQX 210245Z AUTO 24011G19KT 3/4SM BR VV002 07/07 A3034 RMK AO2 T00720072
                 TSNO =
2018-02-20 21:32 METAR KCQX 210232Z AUTO 24009G17KT 1SM BR VV002 07/07 A3034 RMK AO2 T00670067
                 TSNO =
2018-02-20 20:52 METAR KCQX 210152Z AUTO 23009G16KT 200V270 3/4SM BR VV002 07/07 A3033 RMK AO2
                 SLP273 T00670067 TSNO =

Support USWX by starting your Amazon purchase here.